📊 Raw Sensor Data

Showing records 34226 to 34250 of 84,836 total

ID Distance (ft) Battery V Battery A Int Temp (°F) Int Humid (%) Ext Temp (°F) Solar V RSSI SNR Time Stamp
50623 15.5 3.87 -5 64 46 66 0.00 -71 8 08/29/2025 10:30 PM
50622 15.5 3.80 -5 65 46 65 0.00 -71 7 08/29/2025 10:15 PM
50621 15.5 3.80 -5 65 47 67 0.00 -71 8 08/29/2025 10:00 PM
50620 15.5 3.87 -5 66 47 67 0.00 -70 7 08/29/2025 09:45 PM
50619 15.5 3.87 -5 66 48 67 0.00 -71 8 08/29/2025 09:30 PM
50618 15.5 3.81 -5 67 48 69 0.00 -69 8 08/29/2025 09:15 PM
50617 15.5 3.81 -5 68 49 69 0.00 -70 8 08/29/2025 09:00 PM
50616 15.5 3.87 -5 69 50 69 0.00 -70 7 08/29/2025 08:45 PM
50615 15.5 3.81 -5 70 52 69 0.00 -70 8 08/29/2025 08:30 PM
50614 15.6 3.87 -5 72 53 70 0.00 -70 8 08/29/2025 08:15 PM
50613 15.5 3.81 -5 74 55 72 0.10 -71 8 08/29/2025 08:00 PM
50612 15.5 3.86 -9 78 56 74 2.40 -70 8 08/29/2025 07:45 PM
50611 15.7 3.81 -5 83 55 77 4.60 -70 8 08/29/2025 07:30 PM
50610 15.8 3.89 0 90 53 84 4.50 -70 8 08/29/2025 07:15 PM
50609 15.5 3.91 9 93 52 86 4.60 -70 8 08/29/2025 07:00 PM
50608 15.7 3.88 0 95 51 87 4.50 -70 8 08/29/2025 06:45 PM
50607 15.6 3.83 0 97 50 89 5.10 -71 8 08/29/2025 06:30 PM
50606 15.7 3.83 0 98 50 90 5.10 -71 7 08/29/2025 06:15 PM
50605 15.7 3.83 0 100 49 90 5.10 -71 7 08/29/2025 06:00 PM
50604 15.8 3.83 0 102 48 92 5.10 -71 8 08/29/2025 05:45 PM
50603 15.8 3.86 0 103 48 92 5.10 -71 8 08/29/2025 05:30 PM
50602 15.8 3.83 0 104 47 92 5.10 -71 8 08/29/2025 05:15 PM
50601 15.8 3.83 0 105 47 93 5.10 -70 8 08/29/2025 05:00 PM
50600 15.8 3.90 0 106 46 93 5.10 -71 7 08/29/2025 04:45 PM
50599 15.8 3.83 0 107 45 96 5.10 -71 8 08/29/2025 04:30 PM